createdAt,value
2018-03-30T00:01:02.274Z,6.10
2018-03-30T00:06:05.574Z,10.43
2018-03-30T00:11:08.126Z,7.40
2018-03-30T00:16:10.666Z,10.10
2018-03-30T00:21:13.255Z,5.13
2018-03-30T00:26:15.785Z,6.97
2018-03-30T00:31:18.301Z,6.03
2018-03-30T00:36:20.843Z,10.07
2018-03-30T00:41:23.371Z,8.53
2018-03-30T00:46:25.914Z,9.03
2018-03-30T00:51:28.442Z,8.20
2018-03-30T00:56:30.998Z,14.63
2018-03-30T01:01:33.530Z,8.80
2018-03-30T01:06:36.062Z,12.90
2018-03-30T01:11:38.602Z,5.77
2018-03-30T01:16:41.137Z,7.37
2018-03-30T01:21:43.662Z,12.43
2018-03-30T01:26:46.190Z,8.37
2018-03-30T01:31:48.727Z,9.80
2018-03-30T01:36:51.258Z,10.80
2018-03-30T01:41:54.557Z,8.03
2018-03-30T01:46:57.074Z,9.37
2018-03-30T01:51:59.599Z,9.57
2018-03-30T01:57:02.147Z,17.53
2018-03-30T02:02:04.678Z,14.33
2018-03-30T02:07:07.226Z,15.87
2018-03-30T02:12:09.746Z,15.53
2018-03-30T02:17:12.274Z,16.03
2018-03-30T02:22:14.810Z,16.90
2018-03-30T02:27:17.351Z,16.07
2018-03-30T02:32:19.878Z,14.20
2018-03-30T02:37:22.418Z,14.97
2018-03-30T02:42:24.954Z,20.60
2018-03-30T02:47:28.254Z,16.50
2018-03-30T02:52:30.794Z,19.70
2018-03-30T02:57:33.328Z,20.10
2018-03-30T03:02:35.870Z,21.87
2018-03-30T03:07:39.178Z,21.60
2018-03-30T03:12:42.487Z,23.67
2018-03-30T03:17:45.022Z,21.90
2018-03-30T03:22:47.570Z,20.73
2018-03-30T03:27:50.093Z,26.30
2018-03-30T03:32:53.410Z,22.33
2018-03-30T03:37:56.711Z,24.10
2018-03-30T03:42:59.258Z,24.60
2018-03-30T03:48:01.805Z,23.03
2018-03-30T03:53:04.350Z,21.83
2018-03-30T03:58:06.877Z,21.70
2018-03-30T04:03:09.423Z,27.13
2018-03-30T04:08:12.729Z,24.50
2018-03-30T04:13:15.250Z,23.27
2018-03-30T04:18:17.790Z,25.83
2018-03-30T04:23:20.339Z,25.50
2018-03-30T04:28:22.904Z,24.60
2018-03-30T04:33:25.441Z,75.03
2018-03-30T04:38:27.982Z,23.60
2018-03-30T04:43:30.525Z,28.80
2018-03-30T04:48:33.047Z,22.93
2018-03-30T04:53:35.583Z,26.80
2018-03-30T04:58:38.117Z,35.93
2018-03-30T05:03:40.660Z,28.07
2018-03-30T05:08:43.189Z,20.67
2018-03-30T05:13:45.735Z,25.47
2018-03-30T05:18:48.269Z,21.00
2018-03-30T05:23:50.806Z,23.67
2018-03-30T05:28:53.375Z,24.57
2018-03-30T05:33:55.881Z,27.07
2018-03-30T05:38:58.421Z,31.10
2018-03-30T05:44:00.938Z,27.90
2018-03-30T05:49:03.449Z,29.43
2018-03-30T05:54:05.992Z,32.53
2018-03-30T05:59:08.534Z,30.23
2018-03-30T06:04:11.067Z,28.23
2018-03-30T06:09:13.586Z,27.33
2018-03-30T06:14:16.122Z,30.63
2018-03-30T06:19:18.664Z,37.27
2018-03-30T06:24:21.205Z,31.43
2018-03-30T06:29:23.762Z,26.53
2018-03-30T06:34:26.304Z,33.63
2018-03-30T06:39:28.847Z,26.77
2018-03-30T06:44:31.382Z,31.80
2018-03-30T06:49:33.913Z,26.63
2018-03-30T06:54:36.429Z,24.37
2018-03-30T06:59:38.975Z,27.07
2018-03-30T07:04:42.287Z,25.17
2018-03-30T07:09:45.626Z,25.13
2018-03-30T07:14:48.166Z,25.03
2018-03-30T07:19:50.702Z,23.90
2018-03-30T07:24:54.008Z,17.37
2018-03-30T07:29:56.550Z,25.70
2018-03-30T07:34:59.115Z,24.77
2018-03-30T07:40:02.403Z,20.10
2018-03-30T07:45:04.941Z,21.37
2018-03-30T07:50:07.462Z,22.57
2018-03-30T07:55:09.998Z,18.93
2018-03-30T08:00:12.533Z,19.10
2018-03-30T08:05:15.069Z,17.10
2018-03-30T08:10:17.619Z,22.83
2018-03-30T08:15:21.007Z,17.23
2018-03-30T08:20:23.540Z,19.93
2018-03-30T08:25:26.848Z,19.27
2018-03-30T08:30:29.385Z,19.70
2018-03-30T08:35:31.917Z,17.37
2018-03-30T08:40:34.475Z,14.00
2018-03-30T08:45:37.001Z,22.63
2018-03-30T08:50:39.518Z,13.43
2018-03-30T08:55:42.061Z,11.23
2018-03-30T09:00:44.584Z,12.10
2018-03-30T09:05:47.113Z,11.40
2018-03-30T09:10:49.632Z,11.73
2018-03-30T09:15:52.172Z,10.53
2018-03-30T09:20:54.709Z,12.60
2018-03-30T09:25:57.243Z,9.47
2018-03-30T09:30:59.787Z,10.73
2018-03-30T09:36:02.338Z,14.80
2018-03-30T09:41:04.873Z,6.50
2018-03-30T09:46:07.420Z,9.03
2018-03-30T09:51:09.954Z,8.23
2018-03-30T09:56:12.488Z,10.80
2018-03-30T10:01:15.821Z,9.70
2018-03-30T10:06:18.363Z,8.20
2018-03-30T10:11:20.886Z,2.27
2018-03-30T10:16:23.423Z,3.90
2018-03-30T10:21:25.968Z,6.40
2018-03-30T10:26:28.498Z,8.30
2018-03-30T10:31:31.034Z,5.60
2018-03-30T10:36:34.347Z,6.73
2018-03-30T10:41:36.875Z,15.03
2018-03-30T10:46:39.413Z,7.27
2018-03-30T10:51:41.942Z,5.90
2018-03-30T10:56:44.478Z,9.03
2018-03-30T11:01:47.009Z,7.30
2018-03-30T11:06:49.550Z,6.37
2018-03-30T11:11:52.074Z,9.87
2018-03-30T11:16:54.615Z,7.50
2018-03-30T11:21:57.145Z,9.73
2018-03-30T11:26:59.688Z,6.90
2018-03-30T11:32:02.242Z,7.90
2018-03-30T11:37:05.550Z,12.20
2018-03-30T11:42:08.090Z,9.50
2018-03-30T11:47:10.629Z,9.20
2018-03-30T11:52:13.164Z,9.20
2018-03-30T11:57:15.702Z,7.87
2018-03-30T12:02:18.232Z,6.93
2018-03-30T12:07:20.767Z,6.70
2018-03-30T12:17:34.022Z,5.50
2018-03-30T12:22:36.562Z,6.20
2018-03-30T12:27:39.102Z,5.87
2018-03-30T12:32:42.442Z,6.40
2018-03-30T12:37:44.982Z,5.77
2018-03-30T12:42:47.523Z,6.03
2018-03-30T12:47:50.830Z,6.50
2018-03-30T12:52:54.130Z,6.67
2018-03-30T12:57:56.674Z,7.20
2018-03-30T13:02:59.216Z,5.00
2018-03-30T13:08:01.745Z,3.77
2018-03-30T13:13:04.290Z,3.97
2018-03-30T13:18:06.832Z,5.53
2018-03-30T13:23:09.374Z,4.43
2018-03-30T13:28:11.897Z,3.30
2018-03-30T13:33:14.434Z,3.93
2018-03-30T13:38:17.744Z,4.23
2018-03-30T13:43:20.261Z,2.50
2018-03-30T13:48:22.802Z,2.90
2018-03-30T13:53:33.907Z,2.43
2018-03-30T13:58:50.889Z,4.00
2018-03-30T14:03:56.169Z,4.10
2018-03-30T14:09:05.125Z,3.80
2018-03-30T14:14:07.715Z,2.40
2018-03-30T14:19:11.002Z,4.27
2018-03-30T14:24:14.251Z,2.10
2018-03-30T14:29:19.626Z,5.40
2018-03-30T14:34:22.167Z,2.40
2018-03-30T14:45:17.438Z,3.05
2018-03-30T14:50:32.383Z,2.10
2018-03-30T14:55:56.297Z,2.63
2018-03-30T15:01:14.331Z,2.70
2018-03-30T15:06:41.940Z,3.33
2018-03-30T15:12:10.089Z,1.83
2018-03-30T15:17:31.063Z,4.07
2018-03-30T15:22:39.135Z,3.00
2018-03-30T15:27:42.451Z,2.30
2018-03-30T15:33:06.707Z,2.27
2018-03-30T15:38:09.250Z,3.23
2018-03-30T15:43:16.662Z,1.77
2018-03-30T15:48:19.185Z,2.30
2018-03-30T15:53:21.238Z,2.30
2018-03-30T15:58:23.770Z,2.30
2018-03-30T16:03:26.415Z,3.10
2018-03-30T16:08:28.961Z,3.20
2018-03-30T16:13:31.478Z,1.87
2018-03-30T16:18:45.833Z,1.50
2018-03-30T16:23:47.908Z,1.40
2018-03-30T16:28:49.939Z,1.40
2018-03-30T16:33:51.990Z,2.73
2018-03-30T16:38:54.032Z,1.17
2018-03-30T16:43:56.854Z,1.20
2018-03-30T16:48:59.662Z,2.30
2018-03-30T16:54:01.705Z,1.10
2018-03-30T16:59:03.755Z,1.13
2018-03-30T17:04:05.806Z,1.70
2018-03-30T17:09:07.887Z,0.90
2018-03-30T17:14:09.925Z,0.90
2018-03-30T17:19:11.990Z,1.17
2018-03-30T17:24:14.051Z,3.17
2018-03-30T17:29:16.109Z,1.40
2018-03-30T17:34:18.224Z,1.00
2018-03-30T17:39:21.030Z,2.20
2018-03-30T17:44:23.867Z,1.70
2018-03-30T17:49:25.912Z,1.67
2018-03-30T17:54:29.471Z,4.13
2018-03-30T17:59:31.528Z,6.77
2018-03-30T18:04:33.570Z,10.53
2018-03-30T18:09:35.641Z,2.17
2018-03-30T18:14:37.698Z,3.37
2018-03-30T18:19:40.591Z,3.07
2018-03-30T18:24:42.594Z,2.80
2018-03-30T18:29:45.414Z,2.83
2018-03-30T18:34:47.461Z,2.07
2018-03-30T18:39:49.521Z,4.33
2018-03-30T18:44:51.616Z,4.57
2018-03-30T18:49:53.618Z,5.77
2018-03-30T18:54:55.673Z,5.93
2018-03-30T18:59:57.717Z,11.20
2018-03-30T19:05:00.552Z,12.47
2018-03-30T19:10:02.610Z,2.90
2018-03-30T19:15:04.686Z,2.63
2018-03-30T19:20:06.759Z,4.83
2018-03-30T19:25:08.802Z,14.00
2018-03-30T19:30:10.838Z,5.23
2018-03-30T19:35:12.872Z,3.40
2018-03-30T19:40:14.917Z,3.10
2018-03-30T19:45:16.966Z,3.70
2018-03-30T19:50:19.014Z,3.60
2018-03-30T19:55:21.057Z,3.53
2018-03-30T20:00:23.110Z,3.60
2018-03-30T20:05:25.178Z,5.80
2018-03-30T20:10:27.994Z,4.13
2018-03-30T20:15:30.077Z,4.00
2018-03-30T20:20:32.090Z,2.80
2018-03-30T20:25:34.134Z,6.00
2018-03-30T20:30:36.174Z,4.60
2018-03-30T20:35:38.214Z,4.50
2018-03-30T20:40:40.260Z,3.23
2018-03-30T20:45:42.302Z,8.20
2018-03-30T20:50:44.343Z,4.60
2018-03-30T20:55:46.394Z,4.70
2018-03-30T21:00:48.432Z,3.80
2018-03-30T21:05:50.512Z,3.60
2018-03-30T21:10:52.547Z,3.37
2018-03-30T21:15:54.600Z,5.23
2018-03-30T21:20:56.642Z,3.97
2018-03-30T21:25:58.681Z,4.10
2018-03-30T21:31:00.716Z,4.43
2018-03-30T21:36:02.790Z,4.07
2018-03-30T21:41:04.828Z,5.60
2018-03-30T21:46:06.870Z,5.13
2018-03-30T21:51:08.907Z,5.70
2018-03-30T21:56:10.950Z,6.73
2018-03-30T22:01:12.994Z,6.20
2018-03-30T22:06:15.817Z,5.13
2018-03-30T22:11:17.854Z,5.73
2018-03-30T22:16:19.903Z,4.80
2018-03-30T22:21:21.946Z,4.50
2018-03-30T22:26:23.987Z,5.37
2018-03-30T22:31:26.026Z,4.90
2018-03-30T22:36:28.059Z,4.47
2018-03-30T22:41:30.097Z,7.07
2018-03-30T22:46:32.156Z,4.53
2018-03-30T22:51:34.169Z,3.30
2018-03-30T22:56:36.217Z,4.10
2018-03-30T23:01:38.266Z,3.70
2018-03-30T23:06:40.322Z,3.50
2018-03-30T23:11:42.370Z,3.90
2018-03-30T23:16:44.420Z,4.87
2018-03-30T23:21:46.466Z,3.50
2018-03-30T23:26:48.493Z,4.53
2018-03-30T23:31:50.530Z,5.53
2018-03-30T23:36:52.573Z,3.40
2018-03-30T23:41:54.618Z,6.37
2018-03-30T23:46:56.653Z,5.37
2018-03-30T23:51:58.714Z,4.07
2018-03-30T23:57:00.750Z,2.90
